createdAt,value
2023-05-09T00:00:47.334Z,24.52
2023-05-09T00:01:47.384Z,24.52
2023-05-09T00:02:47.466Z,24.53
2023-05-09T00:03:47.359Z,24.52
2023-05-09T00:04:47.380Z,24.52
2023-05-09T00:05:47.365Z,24.52
2023-05-09T00:06:47.285Z,24.52
2023-05-09T00:07:47.306Z,24.52
2023-05-09T00:08:47.282Z,24.53
2023-05-09T00:09:47.293Z,24.52
2023-05-09T00:10:47.270Z,24.52
2023-05-09T00:11:47.265Z,24.52
2023-05-09T00:12:47.313Z,24.53
2023-05-09T00:13:47.254Z,24.52
2023-05-09T00:14:47.282Z,24.52
2023-05-09T00:15:47.313Z,24.53
2023-05-09T00:16:47.300Z,24.53
2023-05-09T00:17:47.221Z,24.52
2023-05-09T00:18:47.301Z,24.52
2023-05-09T00:19:47.219Z,24.53
2023-05-09T00:20:47.191Z,24.53
2023-05-09T00:21:47.185Z,24.53
2023-05-09T00:22:47.175Z,24.52
2023-05-09T00:23:47.192Z,24.52
2023-05-09T00:24:47.165Z,24.52
2023-05-09T00:25:47.159Z,24.52
2023-05-09T00:26:47.158Z,24.52
2023-05-09T00:27:47.106Z,24.52
2023-05-09T00:28:47.137Z,24.53
2023-05-09T00:29:47.132Z,24.52
2023-05-09T00:30:47.112Z,24.52
2023-05-09T00:31:47.143Z,24.52
2023-05-09T00:32:47.127Z,24.52
2023-05-09T00:33:47.109Z,24.53
2023-05-09T00:34:47.168Z,24.53
2023-05-09T00:35:47.092Z,24.52
2023-05-09T00:36:47.057Z,24.52
2023-05-09T00:37:47.075Z,24.52
2023-05-09T00:38:47.075Z,24.52
2023-05-09T00:39:47.066Z,24.52
2023-05-09T00:40:47.038Z,24.51
2023-05-09T00:41:47.052Z,24.52
2023-05-09T00:42:47.017Z,24.51
2023-05-09T00:43:47.005Z,24.51
2023-05-09T00:44:47.033Z,24.52
2023-05-09T00:45:47.023Z,24.51
2023-05-09T00:46:46.976Z,24.51
2023-05-09T00:47:47.029Z,24.51
2023-05-09T00:48:46.993Z,24.52
2023-05-09T00:49:46.956Z,24.51
2023-05-09T00:50:47.060Z,24.52
2023-05-09T00:51:46.964Z,24.52
2023-05-09T00:52:46.976Z,24.51
2023-05-09T00:53:46.949Z,24.51
2023-05-09T00:54:46.990Z,24.51
2023-05-09T00:55:46.936Z,24.51
2023-05-09T00:56:46.940Z,24.52
2023-05-09T00:57:46.915Z,24.52
2023-05-09T00:58:46.898Z,24.52
2023-05-09T00:59:46.885Z,24.52
2023-05-09T01:00:46.920Z,24.52
2023-05-09T01:01:47.029Z,24.52
2023-05-09T01:02:46.943Z,24.52
2023-05-09T01:03:46.978Z,24.52
2023-05-09T01:04:46.873Z,24.52
2023-05-09T01:05:46.824Z,24.52
2023-05-09T01:06:46.929Z,24.52
2023-05-09T01:07:46.810Z,24.52
2023-05-09T01:08:46.813Z,24.52
2023-05-09T01:09:46.796Z,24.51
2023-05-09T01:10:46.827Z,24.52
2023-05-09T01:11:46.810Z,24.52
2023-05-09T01:12:46.811Z,24.52
2023-05-09T01:13:46.800Z,24.51
2023-05-09T01:14:46.772Z,24.51
2023-05-09T01:15:46.843Z,24.52
2023-05-09T01:16:46.762Z,24.51
2023-05-09T01:17:46.808Z,24.52
2023-05-09T01:18:46.752Z,24.51
2023-05-09T01:19:46.776Z,24.52
2023-05-09T01:20:46.739Z,24.52
2023-05-09T01:21:46.708Z,24.52
2023-05-09T01:22:46.817Z,24.52
2023-05-09T01:23:46.730Z,24.52
2023-05-09T01:24:46.694Z,24.52
2023-05-09T01:25:46.705Z,24.52
2023-05-09T01:26:46.696Z,24.52
2023-05-09T01:27:46.683Z,24.52
2023-05-09T01:28:46.677Z,24.52
2023-05-09T01:29:46.672Z,24.51
2023-05-09T01:30:46.693Z,24.52
2023-05-09T01:31:46.845Z,24.52
2023-05-09T01:32:46.688Z,24.52
2023-05-09T01:33:46.686Z,24.52
2023-05-09T01:34:46.646Z,24.51
2023-05-09T01:35:46.657Z,24.51
2023-05-09T01:36:46.641Z,24.51
2023-05-09T01:37:46.645Z,24.51
2023-05-09T01:38:46.732Z,24.51
2023-05-09T01:39:46.604Z,24.52
2023-05-09T01:40:46.606Z,24.51
2023-05-09T01:41:46.609Z,24.51
2023-05-09T01:42:46.576Z,24.52
2023-05-09T01:43:46.642Z,24.52
2023-05-09T01:44:46.579Z,24.51
2023-05-09T01:45:46.598Z,24.51
2023-05-09T01:46:46.589Z,24.51
2023-05-09T01:47:46.566Z,24.51
2023-05-09T01:48:46.563Z,24.51
2023-05-09T01:49:46.536Z,24.51
2023-05-09T01:50:46.550Z,24.51
2023-05-09T01:51:46.555Z,24.51
2023-05-09T01:52:46.514Z,24.51
2023-05-09T01:53:46.503Z,24.51
2023-05-09T01:54:46.610Z,24.50
2023-05-09T01:55:46.522Z,24.50
2023-05-09T01:56:46.471Z,24.50
2023-05-09T01:57:46.500Z,24.50
2023-05-09T01:58:46.492Z,24.51
2023-05-09T01:59:46.492Z,24.50
2023-05-09T02:00:46.537Z,24.50
2023-05-09T02:01:46.466Z,24.51
2023-05-09T02:02:46.498Z,24.51
2023-05-09T02:03:46.442Z,24.50
2023-05-09T02:04:46.450Z,24.51
2023-05-09T02:05:46.457Z,24.50
2023-05-09T02:06:46.414Z,24.49
2023-05-09T02:07:46.437Z,24.49
2023-05-09T02:08:46.438Z,24.50
2023-05-09T02:09:46.432Z,24.50
2023-05-09T02:10:46.492Z,24.50
2023-05-09T02:11:46.412Z,24.50
2023-05-09T02:12:46.363Z,24.50
2023-05-09T02:13:46.377Z,24.50
2023-05-09T02:14:46.360Z,24.50
2023-05-09T02:15:46.390Z,24.50
2023-05-09T02:16:46.389Z,24.50
2023-05-09T02:17:46.358Z,24.50
2023-05-09T02:18:46.338Z,24.49
2023-05-09T02:19:46.310Z,24.50
2023-05-09T02:20:46.346Z,24.50
2023-05-09T02:21:46.315Z,24.49
2023-05-09T02:22:46.299Z,24.49
2023-05-09T02:23:46.289Z,24.48
2023-05-09T02:24:46.270Z,24.48
2023-05-09T02:25:46.279Z,24.49
2023-05-09T02:26:46.368Z,24.48
2023-05-09T02:27:46.256Z,24.48
2023-05-09T02:28:46.257Z,24.49
2023-05-09T02:29:46.230Z,24.50
2023-05-09T02:30:46.260Z,24.50
2023-05-09T02:31:46.295Z,24.49
2023-05-09T02:32:46.262Z,24.50
2023-05-09T02:33:46.207Z,24.49
2023-05-09T02:34:46.223Z,24.50
2023-05-09T02:35:46.200Z,24.50
2023-05-09T02:36:46.180Z,24.50
2023-05-09T02:37:46.207Z,24.49
2023-05-09T02:38:46.166Z,24.49
2023-05-09T02:39:46.184Z,24.49
2023-05-09T02:40:46.175Z,24.49
2023-05-09T02:41:46.146Z,24.49
2023-05-09T02:42:46.248Z,24.48
2023-05-09T02:43:46.149Z,24.49
2023-05-09T02:44:46.127Z,24.49
2023-05-09T02:45:46.149Z,24.49
2023-05-09T02:46:46.096Z,24.49
2023-05-09T02:47:46.130Z,24.48
2023-05-09T02:48:46.097Z,24.49
2023-05-09T02:49:46.076Z,24.49
2023-05-09T02:50:46.069Z,24.49
2023-05-09T02:51:46.074Z,24.50
2023-05-09T02:52:46.087Z,24.49
2023-05-09T02:53:46.056Z,24.48
2023-05-09T02:54:46.053Z,24.49
2023-05-09T02:55:46.035Z,24.49
2023-05-09T02:56:46.038Z,24.49
2023-05-09T02:57:46.002Z,24.49
2023-05-09T02:58:46.123Z,24.49
2023-05-09T02:59:46.033Z,24.49
2023-05-09T03:00:45.997Z,24.50
2023-05-09T03:01:47.013Z,24.49
2023-05-09T03:02:46.113Z,24.49
2023-05-09T03:03:46.111Z,24.48
2023-05-09T03:04:45.978Z,24.48
2023-05-09T03:05:45.971Z,24.48
2023-05-09T03:06:45.968Z,24.49
2023-05-09T03:07:45.986Z,24.50
2023-05-09T03:08:45.978Z,24.49
2023-05-09T03:09:45.951Z,24.49
2023-05-09T03:10:45.977Z,24.50
2023-05-09T03:11:45.943Z,24.49
2023-05-09T03:12:46.007Z,24.50
2023-05-09T03:13:45.970Z,24.49
2023-05-09T03:14:46.054Z,24.49
2023-05-09T03:15:46.004Z,24.49
2023-05-09T03:16:45.939Z,24.49
2023-05-09T03:17:46.013Z,24.49
2023-05-09T03:18:45.966Z,24.49
2023-05-09T03:19:45.942Z,24.49
2023-05-09T03:20:45.966Z,24.49
2023-05-09T03:21:45.937Z,24.50
2023-05-09T03:22:45.949Z,24.50
2023-05-09T03:23:45.957Z,24.49
2023-05-09T03:24:46.082Z,24.49
2023-05-09T03:25:45.907Z,24.49
2023-05-09T03:26:45.945Z,24.49
2023-05-09T03:27:45.944Z,24.48
2023-05-09T03:28:45.917Z,24.48
2023-05-09T03:29:45.944Z,24.49
2023-05-09T03:30:46.016Z,24.49
2023-05-09T03:31:45.916Z,24.49
2023-05-09T03:32:45.981Z,24.49
2023-05-09T03:33:45.928Z,24.49
2023-05-09T03:34:45.908Z,24.49
2023-05-09T03:35:45.939Z,24.49
2023-05-09T03:36:45.889Z,24.48
2023-05-09T03:37:45.901Z,24.48
2023-05-09T03:38:45.917Z,24.48
2023-05-09T03:39:45.929Z,24.48
2023-05-09T03:40:45.980Z,24.48
2023-05-09T03:41:45.913Z,24.48
2023-05-09T03:42:45.930Z,24.48
2023-05-09T03:43:45.914Z,24.48
2023-05-09T03:44:45.907Z,24.47
2023-05-09T03:45:45.926Z,24.47
2023-05-09T03:46:46.046Z,24.48
2023-05-09T03:47:45.961Z,24.48
2023-05-09T03:48:45.932Z,24.47
2023-05-09T03:49:45.923Z,24.46
2023-05-09T03:50:45.929Z,24.47
2023-05-09T03:51:45.932Z,24.47
2023-05-09T03:52:45.944Z,24.46
2023-05-09T03:53:45.911Z,24.45
2023-05-09T03:54:45.929Z,24.46
2023-05-09T03:55:45.904Z,24.45
2023-05-09T03:56:45.918Z,24.45
2023-05-09T03:57:45.935Z,24.47
2023-05-09T03:58:45.896Z,24.47
2023-05-09T03:59:45.918Z,24.47
2023-05-09T04:00:45.928Z,24.47
2023-05-09T04:01:45.925Z,24.47
2023-05-09T04:02:46.020Z,24.47
2023-05-09T04:03:46.001Z,24.47
2023-05-09T04:04:45.916Z,24.47
2023-05-09T04:05:45.921Z,24.47
2023-05-09T04:06:45.918Z,24.47
2023-05-09T04:07:45.904Z,24.47
2023-05-09T04:08:45.898Z,24.47
2023-05-09T04:09:45.922Z,24.47
2023-05-09T04:10:45.933Z,24.46
2023-05-09T04:11:45.930Z,24.46
2023-05-09T04:12:45.954Z,24.47
2023-05-09T04:13:45.915Z,24.46
2023-05-09T04:14:48.727Z,24.47
2023-05-09T04:15:45.930Z,24.46
2023-05-09T04:16:46.011Z,24.47
2023-05-09T04:17:45.956Z,24.47
2023-05-09T04:18:46.001Z,24.46
2023-05-09T04:19:45.901Z,24.46
2023-05-09T04:20:45.884Z,24.46
2023-05-09T04:21:45.894Z,24.46
2023-05-09T04:22:47.058Z,24.47
2023-05-09T04:23:46.012Z,24.47
2023-05-09T04:24:46.179Z,24.47
2023-05-09T04:25:46.021Z,24.46
2023-05-09T04:26:46.494Z,24.46
2023-05-09T04:27:45.846Z,24.46
2023-05-09T04:28:45.809Z,24.47
2023-05-09T04:29:45.823Z,24.47
2023-05-09T04:30:45.822Z,24.47
2023-05-09T04:31:45.929Z,24.47
2023-05-09T04:32:45.899Z,24.47
2023-05-09T04:33:45.779Z,24.47
2023-05-09T04:34:45.862Z,24.47
2023-05-09T04:35:45.772Z,24.48
2023-05-09T04:36:45.784Z,24.47
2023-05-09T04:37:45.759Z,24.47
2023-05-09T04:38:45.732Z,24.47
2023-05-09T04:39:45.754Z,24.47
2023-05-09T04:40:45.739Z,24.47
2023-05-09T04:41:45.730Z,24.47
2023-05-09T04:42:45.719Z,24.47
2023-05-09T04:43:45.732Z,24.48
2023-05-09T04:44:45.684Z,24.47
2023-05-09T04:45:45.691Z,24.49
2023-05-09T04:46:45.800Z,24.47
2023-05-09T04:47:45.725Z,24.47
2023-05-09T04:48:45.641Z,24.47
2023-05-09T04:49:45.683Z,24.47
2023-05-09T04:50:45.725Z,24.48
2023-05-09T04:51:45.626Z,24.48
2023-05-09T04:52:45.605Z,24.47
2023-05-09T04:53:45.601Z,24.49
2023-05-09T04:54:45.637Z,24.48
2023-05-09T04:55:45.593Z,24.48
2023-05-09T04:56:45.613Z,24.48
2023-05-09T04:57:45.627Z,24.48
2023-05-09T04:58:45.616Z,24.48
2023-05-09T04:59:45.570Z,24.50
2023-05-09T05:00:53.014Z,24.49
2023-05-09T05:01:45.606Z,24.48
2023-05-09T05:02:45.590Z,24.48
2023-05-09T05:03:45.505Z,24.49
2023-05-09T05:04:45.582Z,24.50
2023-05-09T05:05:45.605Z,24.50
2023-05-09T05:06:45.609Z,24.50
2023-05-09T05:07:45.516Z,24.50
2023-05-09T05:08:45.510Z,24.50
2023-05-09T05:09:45.505Z,24.50
2023-05-09T05:10:45.466Z,24.49
2023-05-09T05:11:57.119Z,24.50
2023-05-09T05:12:46.573Z,24.49
2023-05-09T05:13:45.458Z,24.49
2023-05-09T05:14:45.479Z,24.50
2023-05-09T05:15:45.503Z,24.50
2023-05-09T05:16:45.408Z,24.49
2023-05-09T05:17:45.536Z,24.50
2023-05-09T05:18:45.409Z,24.51
2023-05-09T05:19:45.425Z,24.51
2023-05-09T05:20:45.408Z,24.51
2023-05-09T05:21:45.411Z,24.50
2023-05-09T05:22:45.478Z,24.50
2023-05-09T05:23:45.401Z,24.51
2023-05-09T05:24:45.410Z,24.50
2023-05-09T05:25:45.380Z,24.51
2023-05-09T05:26:45.370Z,24.52
2023-05-09T05:27:45.382Z,24.51
2023-05-09T05:28:45.326Z,24.51
2023-05-09T05:29:45.353Z,24.51
2023-05-09T05:30:45.356Z,24.50
2023-05-09T05:31:45.438Z,24.47
2023-05-09T05:32:45.350Z,24.43
2023-05-09T05:33:45.288Z,24.41
2023-05-09T05:34:45.302Z,24.42
2023-05-09T05:35:45.304Z,24.44
2023-05-09T05:36:45.312Z,24.43
2023-05-09T05:37:46.095Z,24.46
2023-05-09T05:38:45.353Z,24.47
2023-05-09T05:39:45.257Z,24.47
2023-05-09T05:40:45.267Z,24.51
2023-05-09T05:41:45.561Z,24.53
2023-05-09T05:42:45.273Z,24.55
2023-05-09T05:43:45.246Z,24.60
2023-05-09T05:44:45.224Z,24.65
2023-05-09T05:47:04.288Z,24.60
2023-05-09T05:48:04.173Z,24.38
2023-05-09T05:49:04.100Z,24.05
2023-05-09T05:50:04.101Z,23.74
2023-05-09T05:51:04.071Z,23.45
2023-05-09T05:52:04.078Z,23.16
2023-05-09T05:53:04.047Z,23.00
2023-05-09T05:54:04.153Z,22.89
2023-05-09T05:55:04.028Z,22.83
2023-05-09T05:56:04.043Z,22.82
2023-05-09T05:57:04.039Z,22.83
2023-05-09T05:58:04.006Z,22.85
2023-05-09T05:59:04.039Z,22.83
2023-05-09T06:00:03.991Z,22.82
2023-05-09T06:01:04.018Z,22.84
2023-05-09T06:02:04.391Z,22.85
2023-05-09T06:03:04.058Z,22.82
2023-05-09T06:04:04.040Z,22.74
2023-05-09T06:05:03.967Z,22.57
2023-05-09T06:06:03.966Z,22.37
2023-05-09T06:07:04.290Z,22.26
2023-05-09T06:08:03.970Z,22.15
2023-05-09T06:09:03.925Z,22.18
2023-05-09T06:10:04.029Z,22.10
2023-05-09T06:11:03.940Z,22.16
2023-05-09T06:12:03.935Z,22.31
2023-05-09T06:13:03.960Z,22.48
2023-05-09T06:14:03.927Z,22.63
2023-05-09T06:15:03.942Z,22.77
2023-05-09T06:16:18.580Z,22.90
2023-05-09T06:17:04.922Z,23.03
2023-05-09T06:18:04.309Z,23.16
2023-05-09T06:19:03.891Z,23.27
2023-05-09T06:20:03.926Z,23.36
2023-05-09T06:21:03.884Z,23.44
2023-05-09T06:22:03.876Z,23.49
2023-05-09T06:23:03.853Z,23.54
2023-05-09T06:24:10.250Z,23.58
2023-05-09T06:25:04.858Z,23.61
2023-05-09T06:26:03.933Z,23.65
2023-05-09T06:27:03.840Z,23.68
2023-05-09T06:28:03.833Z,23.69
2023-05-09T06:29:03.838Z,23.70
2023-05-09T06:30:14.063Z,23.69
2023-05-09T06:31:04.820Z,23.67
2023-05-09T06:32:03.806Z,23.67
2023-05-09T06:33:03.837Z,23.66
2023-05-09T06:34:03.862Z,23.66
2023-05-09T06:35:03.756Z,23.68
2023-05-09T06:36:03.772Z,23.68
2023-05-09T06:37:03.741Z,23.68
2023-05-09T06:38:03.741Z,23.69
2023-05-09T06:39:03.710Z,23.72
2023-05-09T06:40:03.810Z,23.73
2023-05-09T06:41:03.841Z,23.75
2023-05-09T06:42:03.888Z,23.78
2023-05-09T06:43:03.968Z,23.80
2023-05-09T06:44:03.995Z,23.79
2023-05-09T06:45:04.084Z,23.81
2023-05-09T06:46:04.137Z,23.82
2023-05-09T06:47:04.164Z,23.82
2023-05-09T06:48:04.280Z,23.84
2023-05-09T06:49:04.308Z,23.84
2023-05-09T06:50:04.300Z,23.86
2023-05-09T06:51:04.353Z,23.84
2023-05-09T06:52:04.396Z,23.83
2023-05-09T06:53:04.807Z,23.80
2023-05-09T06:54:04.540Z,23.78
2023-05-09T06:55:04.578Z,23.74
2023-05-09T06:56:04.626Z,23.72
2023-05-09T06:57:04.689Z,23.70
2023-05-09T06:58:04.825Z,23.71
2023-05-09T06:59:04.803Z,23.72
2023-05-09T07:00:04.872Z,23.73
2023-05-09T07:01:04.933Z,23.74
2023-05-09T07:02:04.990Z,23.76
2023-05-09T07:03:05.331Z,23.75
2023-05-09T07:04:05.044Z,23.74
2023-05-09T07:05:05.188Z,23.71
2023-05-09T07:06:05.201Z,23.72
2023-05-09T07:07:05.218Z,23.71
2023-05-09T07:08:05.324Z,23.68
2023-05-09T07:09:44.940Z,23.60
2023-05-09T07:10:44.910Z,23.57
2023-05-09T07:11:44.926Z,23.55
2023-05-09T07:12:44.930Z,23.55
2023-05-09T07:13:45.165Z,23.52
2023-05-09T07:14:44.894Z,23.50
2023-05-09T07:15:45.050Z,23.49
2023-05-09T07:16:44.948Z,23.52
2023-05-09T07:17:44.939Z,23.55
2023-05-09T07:18:44.907Z,23.55
2023-05-09T07:19:44.851Z,23.53
2023-05-09T07:20:44.833Z,23.52
2023-05-09T07:21:44.822Z,23.48
2023-05-09T07:22:44.887Z,23.47
2023-05-09T07:23:44.835Z,23.47
2023-05-09T07:24:44.806Z,23.50
2023-05-09T07:25:44.794Z,23.54
2023-05-09T07:26:44.844Z,23.59
2023-05-09T07:27:44.808Z,23.63
2023-05-09T07:28:45.140Z,23.69
2023-05-09T07:29:44.859Z,23.73
2023-05-09T07:30:44.826Z,23.78
2023-05-09T07:31:44.800Z,23.82
2023-05-09T07:32:44.743Z,23.84
2023-05-09T07:33:45.116Z,23.85
2023-05-09T07:34:44.786Z,23.75
2023-05-09T07:35:44.741Z,23.49
2023-05-09T07:36:44.747Z,23.22
2023-05-09T07:37:44.730Z,23.08
2023-05-09T07:38:45.103Z,22.91
2023-05-09T07:39:44.705Z,22.80
2023-05-09T07:40:44.689Z,22.76
2023-05-09T07:41:44.692Z,22.70
2023-05-09T07:42:44.676Z,22.79
2023-05-09T07:43:45.103Z,22.89
2023-05-09T07:44:44.689Z,23.03
2023-05-09T07:45:44.694Z,23.18
2023-05-09T07:46:44.656Z,23.32
2023-05-09T07:47:44.715Z,23.43
2023-05-09T07:48:44.679Z,23.54
2023-05-09T07:49:44.683Z,23.63
2023-05-09T07:50:44.637Z,23.76
2023-05-09T07:51:44.628Z,23.87
2023-05-09T07:52:44.604Z,23.99
2023-05-09T07:53:44.607Z,24.07
2023-05-09T07:54:44.609Z,24.17
2023-05-09T07:55:44.588Z,24.24
2023-05-09T07:56:44.597Z,24.30
2023-05-09T07:57:44.604Z,24.35
2023-05-09T07:58:44.554Z,24.40
2023-05-09T07:59:44.582Z,24.46
2023-05-09T08:00:44.545Z,24.51
2023-05-09T08:01:44.667Z,24.58
2023-05-09T08:02:44.766Z,24.63
2023-05-09T08:03:44.755Z,24.67
2023-05-09T08:04:44.780Z,24.71
2023-05-09T08:05:44.833Z,24.76
2023-05-09T08:06:44.887Z,24.80
2023-05-09T08:07:44.954Z,24.83
2023-05-09T08:08:44.930Z,24.88
2023-05-09T08:09:44.981Z,24.91
2023-05-09T08:10:45.034Z,24.94
2023-05-09T08:11:45.023Z,24.97
2023-05-09T08:12:45.065Z,24.99
2023-05-09T08:13:45.096Z,25.02
2023-05-09T08:14:45.071Z,25.04
2023-05-09T08:15:45.109Z,25.06
2023-05-09T08:16:45.126Z,25.10
2023-05-09T08:17:45.272Z,25.13
2023-05-09T08:18:45.630Z,25.15
2023-05-09T08:19:46.128Z,25.17
2023-05-09T08:20:45.154Z,25.19
2023-05-09T08:21:45.177Z,25.22
2023-05-09T08:22:45.172Z,25.24
2023-05-09T08:23:45.674Z,25.25
2023-05-09T08:24:45.197Z,25.27
2023-05-09T08:25:45.209Z,25.29
2023-05-09T08:26:45.212Z,25.30
2023-05-09T08:27:45.213Z,25.32
2023-05-09T08:28:45.246Z,25.34
2023-05-09T08:29:45.660Z,25.35
2023-05-09T08:30:45.233Z,25.37
2023-05-09T08:31:45.325Z,25.38
2023-05-09T08:32:45.381Z,25.34
2023-05-09T08:33:45.387Z,25.28
2023-05-09T08:34:45.683Z,25.03
2023-05-09T08:35:45.379Z,24.67
2023-05-09T08:36:45.403Z,24.41
2023-05-09T08:37:45.408Z,24.29
2023-05-09T08:38:45.421Z,24.24
2023-05-09T08:39:45.464Z,24.25
2023-05-09T08:40:45.475Z,24.28
2023-05-09T08:41:45.533Z,24.31
2023-05-09T08:42:45.566Z,24.31
2023-05-09T08:43:45.574Z,24.32
2023-05-09T08:44:45.569Z,24.33
2023-05-09T08:45:45.621Z,24.31
2023-05-09T08:46:45.686Z,24.31
2023-05-09T08:47:45.695Z,24.31
2023-05-09T08:48:45.742Z,24.30
2023-05-09T08:49:45.832Z,24.28
2023-05-09T08:50:45.800Z,24.24
2023-05-09T08:51:45.812Z,24.19
2023-05-09T08:52:45.830Z,24.12
2023-05-09T08:53:45.869Z,24.14
2023-05-09T08:54:46.161Z,24.19
2023-05-09T08:55:46.028Z,24.24
2023-05-09T08:56:45.982Z,24.31
2023-05-09T08:57:45.977Z,24.36
2023-05-09T08:58:45.978Z,24.39
2023-05-09T08:59:46.008Z,24.45
2023-05-09T09:00:46.028Z,24.50
2023-05-09T09:01:46.076Z,24.55
2023-05-09T09:02:46.060Z,24.61
2023-05-09T09:03:46.028Z,24.65
2023-05-09T09:04:46.172Z,24.69
2023-05-09T09:05:46.216Z,24.73
2023-05-09T09:06:46.205Z,24.76
2023-05-09T09:07:46.231Z,24.79
2023-05-09T09:08:46.319Z,24.82
2023-05-09T09:09:46.342Z,24.85
2023-05-09T09:10:46.400Z,24.90
2023-05-09T09:11:46.469Z,24.93
2023-05-09T09:12:48.685Z,24.98
2023-05-09T09:13:46.535Z,24.98
2023-05-09T09:14:46.524Z,24.98
2023-05-09T09:15:46.485Z,25.00
2023-05-09T09:16:46.484Z,25.01
2023-05-09T09:17:46.512Z,25.03
2023-05-09T09:18:46.495Z,25.06
2023-05-09T09:19:46.495Z,25.10
2023-05-09T09:20:47.576Z,25.14
2023-05-09T09:21:46.572Z,25.16
2023-05-09T09:22:46.434Z,25.17
2023-05-09T09:23:46.422Z,25.19
2023-05-09T09:24:47.456Z,25.21
2023-05-09T09:25:46.409Z,25.23
2023-05-09T09:26:46.433Z,25.25
2023-05-09T09:27:46.409Z,25.29
2023-05-09T09:28:46.385Z,25.33
2023-05-09T09:29:46.392Z,25.38
2023-05-09T09:30:46.393Z,25.42
2023-05-09T09:31:46.482Z,25.46
2023-05-09T09:32:46.410Z,25.50
2023-05-09T09:33:46.339Z,25.53
2023-05-09T09:34:46.365Z,25.56
2023-05-09T09:35:46.326Z,25.58
2023-05-09T09:36:46.371Z,25.59
2023-05-09T09:37:46.412Z,25.61
2023-05-09T09:38:46.386Z,25.63
2023-05-09T09:39:46.688Z,25.65
2023-05-09T09:40:46.493Z,25.66
2023-05-09T09:41:46.564Z,25.66
2023-05-09T09:42:46.602Z,25.68
2023-05-09T09:43:46.681Z,25.68
2023-05-09T09:44:47.182Z,25.64
2023-05-09T09:45:46.723Z,25.62
2023-05-09T09:46:46.743Z,25.58
2023-05-09T09:47:46.778Z,25.44
2023-05-09T09:48:46.777Z,25.27
2023-05-09T09:49:46.834Z,25.13
2023-05-09T09:50:47.193Z,25.01
2023-05-09T09:51:46.927Z,24.87
2023-05-09T09:52:46.936Z,24.71
2023-05-09T09:53:47.031Z,24.67
2023-05-09T09:54:46.903Z,24.68
2023-05-09T09:55:46.894Z,24.72
2023-05-09T09:56:46.936Z,24.75
2023-05-09T09:57:46.982Z,24.79
2023-05-09T09:58:47.034Z,24.82
2023-05-09T09:59:47.041Z,24.85
2023-05-09T10:00:47.204Z,24.88
2023-05-09T10:01:47.239Z,24.88
2023-05-09T10:02:48.331Z,24.90
2023-05-09T10:03:47.336Z,24.91
2023-05-09T10:04:47.474Z,24.91
2023-05-09T10:05:47.457Z,24.92
2023-05-09T10:06:48.104Z,24.93
2023-05-09T10:07:47.595Z,24.93
2023-05-09T10:08:47.669Z,24.92
2023-05-09T10:09:47.788Z,24.91
2023-05-09T10:10:48.658Z,24.91
2023-05-09T10:11:47.812Z,24.91
2023-05-09T10:12:47.894Z,24.90
2023-05-09T10:13:47.978Z,24.87
2023-05-09T10:14:48.028Z,24.87
2023-05-09T10:15:53.738Z,24.87
2023-05-09T10:16:49.114Z,24.85
2023-05-09T10:17:48.132Z,24.82
2023-05-09T10:18:48.182Z,24.83
2023-05-09T10:19:48.676Z,24.84
2023-05-09T10:20:48.085Z,24.86
2023-05-09T10:21:48.003Z,24.88
2023-05-09T10:22:48.005Z,24.88
2023-05-09T10:23:48.026Z,24.89
2023-05-09T10:24:48.099Z,24.92
2023-05-09T10:25:49.093Z,24.92
2023-05-09T10:26:48.174Z,24.92
2023-05-09T10:27:48.247Z,24.92
2023-05-09T10:28:48.274Z,24.93
2023-05-09T10:29:48.362Z,24.93
2023-05-09T10:30:48.442Z,24.93
2023-05-09T10:31:48.591Z,24.91
2023-05-09T10:32:48.611Z,24.92
2023-05-09T10:33:48.601Z,24.93
2023-05-09T10:34:49.181Z,24.94
2023-05-09T10:35:48.731Z,24.93
2023-05-09T10:36:48.844Z,24.92
2023-05-09T10:37:48.841Z,24.93
2023-05-09T10:38:48.940Z,24.95
2023-05-09T10:39:48.955Z,24.90
2023-05-09T10:40:49.226Z,24.89
2023-05-09T10:41:49.202Z,24.84
2023-05-09T10:42:49.131Z,24.77
2023-05-09T10:43:49.218Z,24.73
2023-05-09T10:44:49.183Z,24.74
2023-05-09T10:45:49.208Z,24.75
2023-05-09T10:46:49.254Z,24.79
2023-05-09T10:47:49.338Z,24.82
2023-05-09T10:48:49.336Z,24.83
2023-05-09T10:49:49.411Z,24.85
2023-05-09T10:50:49.497Z,24.88
2023-05-09T10:51:49.532Z,24.89
2023-05-09T10:52:49.613Z,24.92
2023-05-09T10:53:49.682Z,24.95
2023-05-09T10:54:49.727Z,24.96
2023-05-09T10:55:49.758Z,25.00
2023-05-09T10:56:49.809Z,25.06
2023-05-09T10:57:49.953Z,25.12
2023-05-09T10:58:49.848Z,25.18
2023-05-09T10:59:49.906Z,25.25
2023-05-09T11:00:49.935Z,25.30
2023-05-09T11:01:49.977Z,25.36
2023-05-09T11:02:50.036Z,25.39
2023-05-09T11:03:50.068Z,25.42
2023-05-09T11:04:49.994Z,25.46
2023-05-09T11:05:50.219Z,25.50
2023-05-09T11:06:50.025Z,25.53
2023-05-09T11:07:49.973Z,25.56
2023-05-09T11:08:50.030Z,25.58
2023-05-09T11:09:50.045Z,25.61
2023-05-09T11:10:50.043Z,25.63
2023-05-09T11:11:50.084Z,25.66
2023-05-09T11:12:50.206Z,25.67
2023-05-09T11:13:50.313Z,25.69
2023-05-09T11:14:50.266Z,25.71
2023-05-09T11:15:50.360Z,25.71
2023-05-09T11:16:50.383Z,25.74
2023-05-09T11:17:50.457Z,25.76
2023-05-09T11:18:50.511Z,25.77
2023-05-09T11:19:50.574Z,25.78
2023-05-09T11:20:50.625Z,25.81
2023-05-09T11:21:50.763Z,25.82
2023-05-09T11:22:50.703Z,25.83
2023-05-09T11:23:51.997Z,25.84
2023-05-09T11:24:50.756Z,25.84
2023-05-09T11:25:51.278Z,25.84
2023-05-09T11:26:51.696Z,25.86
2023-05-09T11:27:50.808Z,25.87
2023-05-09T11:28:50.716Z,25.88
2023-05-09T11:29:50.821Z,25.87
2023-05-09T11:30:50.685Z,25.89
2023-05-09T11:31:50.714Z,25.87
2023-05-09T11:32:50.814Z,25.87
2023-05-09T11:33:50.742Z,25.87
2023-05-09T11:34:50.650Z,25.85
2023-05-09T11:35:50.761Z,25.82
2023-05-09T11:36:50.671Z,25.79
2023-05-09T11:37:50.659Z,25.77
2023-05-09T11:38:50.636Z,25.75
2023-05-09T11:39:50.658Z,25.73
2023-05-09T11:40:50.651Z,25.73
2023-05-09T11:41:50.617Z,25.71
2023-05-09T11:42:50.628Z,25.73
2023-05-09T11:43:50.616Z,25.72
2023-05-09T11:44:50.629Z,25.74
2023-05-09T11:45:51.080Z,25.75
2023-05-09T11:46:50.939Z,25.75
2023-05-09T11:47:50.642Z,25.76
2023-05-09T11:48:50.572Z,25.77
2023-05-09T11:49:50.581Z,25.78
2023-05-09T11:50:50.567Z,25.79
2023-05-09T11:51:50.568Z,25.79
2023-05-09T11:52:50.526Z,25.80
2023-05-09T11:53:50.568Z,25.81
2023-05-09T11:54:50.550Z,25.80
2023-05-09T11:55:50.566Z,25.81
2023-05-09T11:56:50.537Z,25.81
2023-05-09T11:57:50.519Z,25.82
2023-05-09T11:58:50.496Z,25.82
2023-05-09T11:59:50.506Z,25.83
2023-05-09T12:00:50.558Z,25.82
2023-05-09T12:01:50.568Z,25.82
2023-05-09T12:02:50.516Z,25.83
2023-05-09T12:03:50.642Z,25.83
2023-05-09T12:04:50.465Z,25.82
2023-05-09T12:05:50.484Z,25.83
2023-05-09T12:06:50.460Z,25.83
2023-05-09T12:07:50.415Z,25.82
2023-05-09T12:08:50.476Z,25.83
2023-05-09T12:09:50.440Z,25.83
2023-05-09T12:10:50.446Z,25.83
2023-05-09T12:11:50.449Z,25.83
2023-05-09T12:12:50.476Z,25.83
2023-05-09T12:13:50.400Z,25.83
2023-05-09T12:14:50.378Z,25.82
2023-05-09T12:15:50.497Z,25.82
2023-05-09T12:16:50.752Z,25.81
2023-05-09T12:17:52.018Z,25.82
2023-05-09T12:18:50.389Z,25.82
2023-05-09T12:19:50.349Z,25.82
2023-05-09T12:20:50.389Z,25.82
2023-05-09T12:21:50.337Z,25.82
2023-05-09T12:22:50.342Z,25.81
2023-05-09T12:23:52.494Z,25.80
2023-05-09T12:24:50.297Z,25.81
2023-05-09T12:25:50.377Z,25.78
2023-05-09T12:26:50.319Z,25.75
2023-05-09T12:27:50.298Z,25.71
2023-05-09T12:28:50.301Z,25.70
2023-05-09T12:29:50.301Z,25.67
2023-05-09T12:30:50.268Z,25.66
2023-05-09T12:31:50.338Z,25.64
2023-05-09T12:32:50.319Z,25.62
2023-05-09T12:33:50.376Z,25.62
2023-05-09T12:34:50.245Z,25.61
2023-05-09T12:35:50.370Z,25.60
2023-05-09T12:36:50.254Z,25.61
2023-05-09T12:37:50.264Z,25.61
2023-05-09T12:38:50.245Z,25.61
2023-05-09T12:39:50.230Z,25.61
2023-05-09T12:40:50.222Z,25.63
2023-05-09T12:42:01.208Z,25.62
2023-05-09T12:42:51.214Z,25.62
2023-05-09T12:43:50.214Z,25.62
2023-05-09T12:44:50.154Z,25.63
2023-05-09T12:45:50.173Z,25.64
2023-05-09T12:46:50.273Z,25.64
2023-05-09T12:47:50.186Z,25.64
2023-05-09T12:48:50.194Z,25.65
2023-05-09T12:49:50.243Z,25.64
2023-05-09T12:50:50.138Z,25.65
2023-05-09T12:51:50.145Z,25.65
2023-05-09T12:53:02.607Z,25.65
2023-05-09T12:53:51.113Z,25.64
2023-05-09T12:54:50.104Z,25.65